createdAt,value
2019-03-09T00:00:54.574Z,7.20
2019-03-09T00:03:23.409Z,7.10
2019-03-09T00:05:51.523Z,7.10
2019-03-09T00:08:19.607Z,7.00
2019-03-09T00:10:48.824Z,7.00
2019-03-09T00:13:16.928Z,6.90
2019-03-09T00:15:45.126Z,6.70
2019-03-09T00:18:13.365Z,6.80
2019-03-09T00:20:41.858Z,6.80
2019-03-09T00:23:35.138Z,6.90
2019-03-09T00:26:10.811Z,6.90
2019-03-09T00:28:47.084Z,7.00
2019-03-09T00:31:32.286Z,7.00
2019-03-09T00:34:00.482Z,6.90
2019-03-09T00:36:28.587Z,6.80
2019-03-09T00:38:56.980Z,6.80
2019-03-09T00:41:25.583Z,6.80
2019-03-09T00:43:53.778Z,6.70
2019-03-09T00:46:21.899Z,6.70
2019-03-09T00:48:50.078Z,6.60
2019-03-09T00:51:18.173Z,6.60
2019-03-09T00:53:46.280Z,6.50
2019-03-09T00:56:14.745Z,6.40
2019-03-09T00:58:42.850Z,6.40
2019-03-09T01:01:11.159Z,6.50
2019-03-09T01:03:39.506Z,6.40
2019-03-09T01:06:08.148Z,6.30
2019-03-09T01:08:36.350Z,6.30
2019-03-09T01:11:05.685Z,6.30
2019-03-09T01:13:33.785Z,6.40
2019-03-09T01:16:02.005Z,6.50
2019-03-09T01:18:30.199Z,6.40
2019-03-09T01:20:58.975Z,6.40
2019-03-09T01:23:27.206Z,6.30
2019-03-09T01:25:55.482Z,6.30
2019-03-09T01:28:24.091Z,6.30
2019-03-09T01:30:52.189Z,6.40
2019-03-09T01:33:20.575Z,6.40
2019-03-09T01:35:48.877Z,6.40
2019-03-09T01:38:17.077Z,6.50
2019-03-09T01:40:45.504Z,6.60
2019-03-09T01:43:14.270Z,6.60
2019-03-09T01:45:42.510Z,6.60
2019-03-09T01:48:10.802Z,6.60
2019-03-09T01:50:38.959Z,6.50
2019-03-09T01:53:07.169Z,6.70
2019-03-09T01:55:35.532Z,6.70
2019-03-09T01:58:03.746Z,6.80
2019-03-09T02:00:31.949Z,6.80
2019-03-09T02:03:00.220Z,6.90
2019-03-09T02:05:28.410Z,7.00
2019-03-09T02:07:56.625Z,7.00
2019-03-09T02:10:24.911Z,7.10
2019-03-09T02:12:53.142Z,7.10
2019-03-09T02:15:21.533Z,7.10
2019-03-09T02:17:49.874Z,7.20
2019-03-09T02:20:18.073Z,7.30
2019-03-09T02:22:46.289Z,7.20
2019-03-09T02:25:14.778Z,7.30
2019-03-09T02:27:42.983Z,7.40
2019-03-09T02:30:11.346Z,7.30
2019-03-09T02:32:39.503Z,7.40
2019-03-09T02:35:08.951Z,7.40
2019-03-09T02:37:37.098Z,7.40
2019-03-09T02:40:11.288Z,7.40
2019-03-09T02:42:39.658Z,7.60
2019-03-09T02:45:10.166Z,7.60
2019-03-09T02:47:38.446Z,7.60
2019-03-09T02:50:07.767Z,7.60
2019-03-09T02:52:35.927Z,7.70
2019-03-09T02:55:04.286Z,7.70
2019-03-09T02:57:32.450Z,7.70
2019-03-09T03:00:01.107Z,7.70
2019-03-09T03:02:42.179Z,7.70
2019-03-09T03:05:10.465Z,7.60
2019-03-09T03:07:38.587Z,7.60
2019-03-09T03:10:07.661Z,7.60
2019-03-09T03:12:35.877Z,7.60
2019-03-09T03:15:05.159Z,7.60
2019-03-09T03:17:33.258Z,7.60
2019-03-09T03:20:01.426Z,7.60
2019-03-09T03:22:29.884Z,7.70
2019-03-09T03:24:58.039Z,7.70
2019-03-09T03:27:26.268Z,7.70
2019-03-09T03:29:55.346Z,7.70
2019-03-09T03:32:25.623Z,7.70
2019-03-09T03:34:54.024Z,7.70
2019-03-09T03:37:22.173Z,7.70
2019-03-09T03:39:50.397Z,7.70
2019-03-09T03:42:18.577Z,7.70
2019-03-09T03:44:46.876Z,7.70
2019-03-09T03:47:16.489Z,7.80
2019-03-09T03:49:45.230Z,7.80
2019-03-09T03:52:15.628Z,7.80
2019-03-09T03:54:44.147Z,7.80
2019-03-09T03:57:12.550Z,7.80
2019-03-09T03:59:40.876Z,7.80
2019-03-09T04:02:09.611Z,7.70
2019-03-09T04:04:37.985Z,7.70
2019-03-09T04:07:06.334Z,7.80
2019-03-09T04:09:34.742Z,7.70
2019-03-09T04:12:03.065Z,7.60
2019-03-09T04:14:31.530Z,7.60
2019-03-09T04:16:59.639Z,7.60
2019-03-09T04:19:27.791Z,7.50
2019-03-09T04:21:55.891Z,7.60
2019-03-09T04:24:24.599Z,7.50
2019-03-09T04:26:53.265Z,7.60
2019-03-09T04:29:21.558Z,7.50
2019-03-09T04:31:49.863Z,7.50
2019-03-09T04:34:18.137Z,7.50
2019-03-09T04:36:47.041Z,7.50
2019-03-09T04:39:15.688Z,7.30
2019-03-09T04:41:43.799Z,7.30
2019-03-09T04:44:11.910Z,7.20
2019-03-09T04:46:40.067Z,7.10
2019-03-09T04:49:09.105Z,7.10
2019-03-09T04:51:37.327Z,7.00
2019-03-09T04:54:05.451Z,7.00
2019-03-09T04:56:33.597Z,7.00
2019-03-09T04:59:01.782Z,7.00
2019-03-09T05:01:30.138Z,6.90
2019-03-09T05:04:25.697Z,6.90
2019-03-09T05:06:53.966Z,6.90
2019-03-09T05:10:11.818Z,6.90
2019-03-09T05:12:40.473Z,6.80
2019-03-09T05:15:10.107Z,6.80
2019-03-09T05:17:38.270Z,6.70
2019-03-09T05:20:06.534Z,6.60
2019-03-09T05:22:34.692Z,6.50
2019-03-09T05:25:02.908Z,6.50
2019-03-09T05:27:31.066Z,6.40
2019-03-09T05:29:59.278Z,6.30
2019-03-09T05:32:27.434Z,6.30
2019-03-09T05:34:55.527Z,6.20
2019-03-09T05:37:23.619Z,6.20
2019-03-09T05:39:51.879Z,6.20
2019-03-09T05:42:20.006Z,6.20
2019-03-09T05:44:48.179Z,6.10
2019-03-09T05:47:16.294Z,6.10
2019-03-09T05:49:44.548Z,6.10
2019-03-09T05:52:35.114Z,6.00
2019-03-09T05:55:16.186Z,6.00
2019-03-09T05:57:44.392Z,5.90
2019-03-09T06:00:14.403Z,5.90
2019-03-09T06:02:42.544Z,5.90
2019-03-09T06:05:43.410Z,5.90
2019-03-09T06:08:11.642Z,5.80
2019-03-09T06:10:39.843Z,5.80
2019-03-09T06:13:07.995Z,5.80
2019-03-09T06:15:36.577Z,5.80
2019-03-09T06:18:06.407Z,5.80
2019-03-09T06:20:34.880Z,5.80
2019-03-09T06:23:03.166Z,5.70
2019-03-09T06:25:31.390Z,5.60
2019-03-09T06:27:59.647Z,5.60
2019-03-09T06:30:27.752Z,5.60
2019-03-09T06:33:24.034Z,5.70
2019-03-09T06:36:01.517Z,5.70
2019-03-09T06:38:45.630Z,5.80
2019-03-09T06:41:17.926Z,5.90
2019-03-09T06:43:46.299Z,6.00
2019-03-09T06:46:14.535Z,6.10
2019-03-09T06:48:42.753Z,6.20
2019-03-09T06:51:10.912Z,6.20
2019-03-09T06:53:39.090Z,6.30
2019-03-09T06:56:07.712Z,6.30
2019-03-09T06:58:35.827Z,6.30
2019-03-09T07:01:16.344Z,6.40
2019-03-09T07:03:44.495Z,6.40
2019-03-09T07:06:12.734Z,6.50
2019-03-09T07:08:41.754Z,6.60
2019-03-09T07:11:20.661Z,6.70
2019-03-09T07:13:52.793Z,6.90
2019-03-09T07:16:18.838Z,7.00
2019-03-09T07:18:47.185Z,7.20
2019-03-09T07:21:15.391Z,7.40
2019-03-09T07:23:43.561Z,7.70
2019-03-09T07:26:11.876Z,7.70
2019-03-09T07:28:40.024Z,7.80
2019-03-09T07:31:08.232Z,7.90
2019-03-09T07:33:36.759Z,8.00
2019-03-09T07:36:05.383Z,8.10
2019-03-09T07:38:33.509Z,8.20
2019-03-09T07:41:01.815Z,8.30
2019-03-09T07:43:29.947Z,8.40
2019-03-09T07:45:58.306Z,8.50
2019-03-09T07:48:26.519Z,8.60
2019-03-09T07:50:54.850Z,8.80
2019-03-09T07:53:23.130Z,8.90
2019-03-09T07:55:52.246Z,9.00
2019-03-09T07:58:20.795Z,9.00
2019-03-09T08:00:48.962Z,9.20
2019-03-09T08:03:17.183Z,9.40
2019-03-09T08:05:45.364Z,9.50
2019-03-09T08:08:13.485Z,9.60
2019-03-09T08:10:42.280Z,9.70
2019-03-09T08:13:10.659Z,9.80
2019-03-09T08:15:39.399Z,10.00
2019-03-09T08:18:07.646Z,10.00
2019-03-09T08:20:35.861Z,10.30
2019-03-09T08:23:04.277Z,10.70
2019-03-09T08:25:32.430Z,11.10
2019-03-09T08:28:00.534Z,11.50
2019-03-09T08:30:28.903Z,11.90
2019-03-09T08:32:57.195Z,12.20
2019-03-09T08:35:25.398Z,12.50
2019-03-09T08:37:53.650Z,12.70
2019-03-09T08:40:21.946Z,12.90
2019-03-09T08:42:50.604Z,13.00
2019-03-09T08:45:19.274Z,12.90
2019-03-09T08:47:52.027Z,13.40
2019-03-09T08:50:24.071Z,13.40
2019-03-09T08:52:52.236Z,13.60
2019-03-09T08:55:20.983Z,13.80
2019-03-09T08:57:49.221Z,13.90
2019-03-09T09:00:25.773Z,13.90
2019-03-09T09:02:53.963Z,13.90
2019-03-09T09:05:22.127Z,13.80
2019-03-09T09:07:50.235Z,13.80
2019-03-09T09:10:18.704Z,13.80
2019-03-09T09:12:46.930Z,13.90
2019-03-09T09:15:15.352Z,14.00
2019-03-09T09:17:43.617Z,14.10
2019-03-09T09:20:14.401Z,14.30
2019-03-09T09:22:42.628Z,14.40
2019-03-09T09:25:11.309Z,14.40
2019-03-09T09:27:39.470Z,14.60
2019-03-09T09:30:11.142Z,14.60
2019-03-09T09:32:39.461Z,14.80
2019-03-09T09:35:08.520Z,14.90
2019-03-09T09:37:36.796Z,15.00
2019-03-09T09:40:07.315Z,15.10
2019-03-09T09:42:35.576Z,15.30
2019-03-09T09:45:04.676Z,15.40
2019-03-09T09:47:32.940Z,15.40
2019-03-09T09:50:01.051Z,15.50
2019-03-09T09:52:29.766Z,15.60
2019-03-09T09:54:57.891Z,15.70
2019-03-09T09:57:25.987Z,15.70
2019-03-09T09:59:54.202Z,15.70
2019-03-09T10:02:22.422Z,15.70
2019-03-09T10:04:51.722Z,15.80
2019-03-09T10:07:19.843Z,15.90
2019-03-09T10:09:48.006Z,16.00
2019-03-09T10:12:16.225Z,16.10
2019-03-09T10:14:44.388Z,16.20
2019-03-09T10:17:17.586Z,16.30
2019-03-09T10:19:48.187Z,16.30
2019-03-09T10:22:16.390Z,16.40
2019-03-09T10:24:44.628Z,16.50
2019-03-09T10:27:12.793Z,16.70
2019-03-09T10:29:40.919Z,17.00
2019-03-09T10:32:09.170Z,17.20
2019-03-09T10:34:37.270Z,17.50
2019-03-09T10:37:05.526Z,17.70
2019-03-09T10:39:33.754Z,18.00
2019-03-09T10:42:02.033Z,18.30
2019-03-09T10:44:30.736Z,18.50
2019-03-09T10:46:59.146Z,18.70
2019-03-09T10:49:27.366Z,18.90
2019-03-09T10:51:55.582Z,19.10
2019-03-09T10:54:24.130Z,19.30
2019-03-09T10:56:52.310Z,19.50
2019-03-09T10:59:20.411Z,19.70
2019-03-09T11:01:48.526Z,20.00
2019-03-09T11:04:24.336Z,20.00
2019-03-09T11:06:46.723Z,20.10
2019-03-09T11:09:15.250Z,20.10
2019-03-09T11:11:43.358Z,20.00
2019-03-09T11:14:11.930Z,20.10
2019-03-09T11:16:40.134Z,20.20
2019-03-09T11:19:08.292Z,20.40
2019-03-09T11:21:36.462Z,20.50
2019-03-09T11:24:04.757Z,20.40
2019-03-09T11:26:32.858Z,20.30
2019-03-09T11:29:00.973Z,20.10
2019-03-09T11:31:30.298Z,19.90
2019-03-09T11:33:58.399Z,19.60
2019-03-09T11:36:26.761Z,19.50
2019-03-09T11:38:54.981Z,19.30
2019-03-09T11:41:23.194Z,19.20
2019-03-09T11:43:51.445Z,19.00
2019-03-09T11:46:19.658Z,18.90
2019-03-09T11:48:47.771Z,18.80
2019-03-09T11:51:15.951Z,18.90
2019-03-09T11:53:44.094Z,19.10
2019-03-09T11:56:12.251Z,19.20
2019-03-09T11:58:40.469Z,19.40
2019-03-09T12:01:08.733Z,19.50
2019-03-09T12:03:36.836Z,19.60
2019-03-09T12:06:04.968Z,19.90
2019-03-09T12:08:33.144Z,20.10
2019-03-09T12:11:01.350Z,20.20
2019-03-09T12:13:29.874Z,20.30
2019-03-09T12:15:59.268Z,20.20
2019-03-09T12:18:27.717Z,20.20
2019-03-09T12:20:55.870Z,20.30
2019-03-09T12:23:25.161Z,20.40
2019-03-09T12:25:53.705Z,20.30
2019-03-09T12:28:21.972Z,20.20
2019-03-09T12:30:50.324Z,20.20
2019-03-09T12:33:18.537Z,20.20
2019-03-09T12:35:46.795Z,20.30
2019-03-09T12:38:15.010Z,20.30
2019-03-09T12:40:43.390Z,20.50
2019-03-09T12:43:11.701Z,20.50
2019-03-09T12:45:39.891Z,20.60
2019-03-09T12:48:08.115Z,20.50
2019-03-09T12:50:36.326Z,20.40
2019-03-09T12:53:04.608Z,20.30
2019-03-09T12:55:33.390Z,20.20
2019-03-09T12:58:01.997Z,20.20
2019-03-09T13:00:30.699Z,20.00
2019-03-09T13:02:58.946Z,20.00
2019-03-09T13:05:27.175Z,20.00
2019-03-09T13:07:55.451Z,19.90
2019-03-09T13:10:24.007Z,19.80
2019-03-09T13:12:52.259Z,19.60
2019-03-09T13:15:20.487Z,19.60
2019-03-09T13:17:48.654Z,19.60
2019-03-09T13:20:16.974Z,19.50
2019-03-09T13:22:45.232Z,19.40
2019-03-09T13:25:13.979Z,19.20
2019-03-09T13:27:42.345Z,19.10
2019-03-09T13:30:13.361Z,19.00
2019-03-09T13:32:41.565Z,18.90
2019-03-09T13:35:09.898Z,18.80
2019-03-09T13:37:38.586Z,18.70
2019-03-09T13:40:08.271Z,18.60
2019-03-09T13:42:36.466Z,18.50
2019-03-09T13:45:04.919Z,18.50
2019-03-09T13:47:33.182Z,18.40
2019-03-09T13:50:01.287Z,18.30
2019-03-09T13:52:29.516Z,18.10
2019-03-09T13:54:57.741Z,18.20
2019-03-09T13:57:25.894Z,18.10
2019-03-09T13:59:54.440Z,18.20
2019-03-09T14:02:22.713Z,18.30
2019-03-09T14:04:50.906Z,18.30
2019-03-09T14:07:19.091Z,18.30
2019-03-09T14:09:47.223Z,18.30
2019-03-09T14:12:15.408Z,18.30
2019-03-09T14:14:43.515Z,18.30
2019-03-09T14:17:11.734Z,18.30
2019-03-09T14:19:40.274Z,18.30
2019-03-09T14:22:08.403Z,18.20
2019-03-09T14:24:36.565Z,18.10
2019-03-09T14:27:04.885Z,18.10
2019-03-09T14:29:33.029Z,18.00
2019-03-09T14:32:01.701Z,18.00
2019-03-09T14:34:29.955Z,18.10
2019-03-09T14:36:58.058Z,18.10
2019-03-09T14:39:27.610Z,18.10
2019-03-09T14:41:55.752Z,18.10
2019-03-09T14:44:23.921Z,18.10
2019-03-09T14:46:52.023Z,18.00
2019-03-09T14:49:20.182Z,18.10
2019-03-09T14:51:48.442Z,18.20
2019-03-09T14:54:16.770Z,18.20
2019-03-09T14:56:44.886Z,18.20
2019-03-09T14:59:13.152Z,18.30
2019-03-09T15:01:41.370Z,18.30
2019-03-09T15:04:09.533Z,18.40
2019-03-09T15:06:38.030Z,18.50
2019-03-09T15:09:07.090Z,18.60
2019-03-09T15:11:35.195Z,18.60
2019-03-09T15:14:03.803Z,18.60
2019-03-09T15:16:32.007Z,18.50
2019-03-09T15:19:00.697Z,18.50
2019-03-09T15:21:30.207Z,18.50
2019-03-09T15:23:58.471Z,18.40
2019-03-09T15:26:26.574Z,18.30
2019-03-09T15:28:54.761Z,18.30
2019-03-09T15:31:22.963Z,18.40
2019-03-09T15:33:51.134Z,18.40
2019-03-09T15:36:19.261Z,18.40
2019-03-09T15:38:47.525Z,18.40
2019-03-09T15:41:15.838Z,18.40
2019-03-09T15:43:45.710Z,18.50
2019-03-09T15:46:14.436Z,18.50
2019-03-09T15:48:42.615Z,18.40
2019-03-09T15:51:10.723Z,18.40
2019-03-09T15:53:39.012Z,18.50
2019-03-09T15:56:07.105Z,18.50
2019-03-09T15:58:37.109Z,18.50
2019-03-09T16:01:05.905Z,18.40
2019-03-09T16:03:34.191Z,18.30
2019-03-09T16:06:02.831Z,18.30
2019-03-09T16:08:30.955Z,18.10
2019-03-09T16:10:59.301Z,18.10
2019-03-09T16:13:27.419Z,18.00
2019-03-09T16:15:55.807Z,18.00
2019-03-09T16:18:24.027Z,17.90
2019-03-09T16:20:52.310Z,17.90
2019-03-09T16:23:20.425Z,17.90
2019-03-09T16:25:48.616Z,17.90
2019-03-09T16:28:16.833Z,17.80
2019-03-09T16:30:45.033Z,17.80
2019-03-09T16:33:13.126Z,17.70
2019-03-09T16:35:41.751Z,17.60
2019-03-09T16:38:09.958Z,17.50
2019-03-09T16:40:41.024Z,17.50
2019-03-09T16:43:09.151Z,17.50
2019-03-09T16:45:37.355Z,17.40
2019-03-09T16:48:06.098Z,17.30
2019-03-09T16:50:34.335Z,17.30
2019-03-09T16:53:02.711Z,17.20
2019-03-09T16:55:31.384Z,17.20
2019-03-09T16:58:00.696Z,17.20
2019-03-09T17:00:29.340Z,17.10
2019-03-09T17:02:57.890Z,17.10
2019-03-09T17:05:26.173Z,17.10
2019-03-09T17:07:54.390Z,17.00
2019-03-09T17:10:22.680Z,17.00
2019-03-09T17:12:50.804Z,17.00
2019-03-09T17:15:20.874Z,16.90
2019-03-09T17:17:50.060Z,16.90
2019-03-09T17:20:18.462Z,16.80
2019-03-09T17:22:46.703Z,16.80
2019-03-09T17:25:15.173Z,16.70
2019-03-09T17:27:43.488Z,16.70
2019-03-09T17:30:14.107Z,16.70
2019-03-09T17:32:42.213Z,16.60
2019-03-09T17:35:10.677Z,16.50
2019-03-09T17:37:39.255Z,16.40
2019-03-09T17:40:08.004Z,16.30
2019-03-09T17:42:36.161Z,16.30
2019-03-09T17:45:06.273Z,16.30
2019-03-09T17:47:36.259Z,16.30
2019-03-09T17:50:05.222Z,16.10
2019-03-09T17:52:33.351Z,16.10
2019-03-09T17:55:02.011Z,16.00
2019-03-09T17:57:30.165Z,15.90
2019-03-09T17:59:59.058Z,15.80
2019-03-09T18:02:27.223Z,15.50
2019-03-09T18:04:55.334Z,15.60
2019-03-09T18:07:23.505Z,15.60
2019-03-09T18:09:52.025Z,15.40
2019-03-09T18:12:20.558Z,15.40
2019-03-09T18:14:48.666Z,15.30
2019-03-09T18:17:19.649Z,15.30
2019-03-09T18:19:47.775Z,15.30
2019-03-09T18:22:15.943Z,15.20
2019-03-09T18:24:44.059Z,15.20
2019-03-09T18:27:12.342Z,15.20
2019-03-09T18:29:40.455Z,15.20
2019-03-09T18:32:08.819Z,14.90
2019-03-09T18:34:36.918Z,15.20
2019-03-09T18:37:05.341Z,15.10
2019-03-09T18:39:33.462Z,15.10
2019-03-09T18:42:01.746Z,15.00
2019-03-09T18:44:30.398Z,15.00
2019-03-09T18:46:58.553Z,14.90
2019-03-09T18:49:26.719Z,14.70
2019-03-09T18:51:56.378Z,14.60
2019-03-09T18:54:32.301Z,14.60
2019-03-09T18:57:10.227Z,14.50
2019-03-09T18:59:38.455Z,14.40
2019-03-09T19:02:07.055Z,14.40
2019-03-09T19:04:35.210Z,14.40
2019-03-09T19:07:03.409Z,14.50
2019-03-09T19:09:42.204Z,14.60
2019-03-09T19:12:10.539Z,14.70
2019-03-09T19:14:38.727Z,14.70
2019-03-09T19:17:06.815Z,14.80
2019-03-09T19:19:34.970Z,14.80
2019-03-09T19:22:03.097Z,14.90
2019-03-09T19:24:34.212Z,14.90
2019-03-09T19:27:02.336Z,14.90
2019-03-09T19:29:30.546Z,15.00
2019-03-09T19:31:58.718Z,15.00
2019-03-09T19:34:26.907Z,15.00
2019-03-09T19:36:56.341Z,14.90
2019-03-09T19:39:24.514Z,14.90
2019-03-09T19:41:58.934Z,14.80
2019-03-09T19:44:27.420Z,14.80
2019-03-09T19:46:56.528Z,14.70
2019-03-09T19:49:24.731Z,14.70
2019-03-09T19:51:53.295Z,14.70
2019-03-09T19:54:22.331Z,14.70
2019-03-09T19:56:50.510Z,14.60
2019-03-09T19:59:18.722Z,14.60
2019-03-09T20:01:48.657Z,14.50
2019-03-09T20:04:17.217Z,14.40
2019-03-09T20:06:47.186Z,14.40
2019-03-09T20:09:19.828Z,14.40
2019-03-09T20:11:52.472Z,14.20
2019-03-09T20:14:23.174Z,14.20
2019-03-09T20:17:07.298Z,14.10
2019-03-09T20:19:42.770Z,14.20
2019-03-09T20:22:13.599Z,14.20
2019-03-09T20:24:46.205Z,14.20
2019-03-09T20:27:18.755Z,14.30
2019-03-09T20:29:47.135Z,14.30
2019-03-09T20:32:20.388Z,14.20
2019-03-09T20:34:50.774Z,14.20
2019-03-09T20:37:19.007Z,14.20
2019-03-09T20:39:47.275Z,14.00
2019-03-09T20:42:16.382Z,13.90
2019-03-09T20:44:57.049Z,13.90
2019-03-09T20:47:32.606Z,13.80
2019-03-09T20:50:05.475Z,13.70
2019-03-09T20:52:36.906Z,13.60
2019-03-09T20:55:09.807Z,13.60
2019-03-09T20:57:39.181Z,13.60
2019-03-09T21:00:13.783Z,13.40
2019-03-09T21:02:42.179Z,13.30
2019-03-09T21:05:16.522Z,13.30
2019-03-09T21:07:45.780Z,13.30
2019-03-09T21:10:17.037Z,13.30
2019-03-09T21:13:13.088Z,13.30
2019-03-09T21:15:47.894Z,13.20
2019-03-09T21:18:12.892Z,13.10
2019-03-09T21:20:41.127Z,13.10
2019-03-09T21:23:09.451Z,13.00
2019-03-09T21:25:39.631Z,13.00
2019-03-09T21:28:11.349Z,12.90
2019-03-09T21:30:40.789Z,12.80
2019-03-09T21:33:12.307Z,12.70
2019-03-09T21:35:40.429Z,12.60
2019-03-09T21:38:08.549Z,12.50
2019-03-09T21:40:37.219Z,12.40
2019-03-09T21:43:05.430Z,12.40
2019-03-09T21:45:33.534Z,12.40
2019-03-09T21:48:01.873Z,12.50
2019-03-09T21:50:30.082Z,12.50
2019-03-09T21:53:00.107Z,12.50
2019-03-09T21:55:32.073Z,12.40
2019-03-09T21:58:05.483Z,12.40
2019-03-09T22:00:39.651Z,12.20
2019-03-09T22:03:10.912Z,12.10
2019-03-09T22:05:39.382Z,12.10
2019-03-09T22:08:10.642Z,12.00
2019-03-09T22:10:41.925Z,12.00
2019-03-09T22:13:21.661Z,11.80
2019-03-09T22:15:53.503Z,11.70
2019-03-09T22:18:21.739Z,11.70
2019-03-09T22:20:55.413Z,11.60
2019-03-09T22:23:26.742Z,11.60
2019-03-09T22:25:55.453Z,11.50
2019-03-09T22:28:30.512Z,11.50
2019-03-09T22:30:59.020Z,11.30
2019-03-09T22:33:27.176Z,11.40
2019-03-09T22:35:55.626Z,11.40
2019-03-09T22:38:37.004Z,11.40
2019-03-09T22:41:05.224Z,11.40
2019-03-09T22:43:33.494Z,11.40
2019-03-09T22:46:02.168Z,11.30
2019-03-09T22:48:32.498Z,11.30
2019-03-09T22:51:01.147Z,11.30
2019-03-09T22:53:29.417Z,11.30
2019-03-09T22:55:57.695Z,11.30
2019-03-09T22:58:34.569Z,11.30
2019-03-09T23:01:07.773Z,11.20
2019-03-09T23:03:43.119Z,11.10
2019-03-09T23:06:16.441Z,11.00
2019-03-09T23:09:06.958Z,10.90
2019-03-09T23:11:35.329Z,10.90
2019-03-09T23:14:04.327Z,10.80
2019-03-09T23:16:42.846Z,10.90
2019-03-09T23:19:15.510Z,10.80
2019-03-09T23:21:45.678Z,10.80
2019-03-09T23:24:20.990Z,10.70
2019-03-09T23:26:51.353Z,10.70
2019-03-09T23:29:20.058Z,10.50
2019-03-09T23:31:48.176Z,10.30
2019-03-09T23:34:16.338Z,10.30
2019-03-09T23:36:44.450Z,10.40
2019-03-09T23:39:21.459Z,10.30
2019-03-09T23:41:50.312Z,10.40
2019-03-09T23:44:27.858Z,10.50
2019-03-09T23:46:55.945Z,10.50
2019-03-09T23:49:24.122Z,10.60
2019-03-09T23:51:54.884Z,10.50
2019-03-09T23:54:24.768Z,10.60
2019-03-09T23:56:55.156Z,10.60
2019-03-09T23:59:28.611Z,10.60
